X  ZavřítMETAR data      LKPD Pardubice Airport

Teplota

22°C Teplota

14°C Rosný bod

61% Vlhkost



Vítr

 5 KM/H

 3 MPH

 1 M/S

 3 KTS



250°
ZJZ směr
Současné podmínky

Polooblačno Polooblačno
Tlak vzduchu 1007.92 (hPa) - 29.76 (in)
Dohlednost 6.2 (mi) - 10 (km)
Letiště
Kód letiště LKPD

Lokace Pardubice Airport 80 (km)

Metar:
LKPD 240930Z 25003KT 190V340 9999 FEW031 SCT220 22/14 Q1008 NOSIG RMK BLU BLU

Čas: 24-09-2020 11:30